createdAt,value
2023-03-05T00:00:00.575Z,102280
2023-03-05T00:05:00.341Z,102270
2023-03-05T00:10:02.577Z,102260
2023-03-05T00:15:00.326Z,102250
2023-03-05T00:20:02.349Z,102250
2023-03-05T00:25:00.596Z,102240
2023-03-05T00:30:00.355Z,102230
2023-03-05T00:35:00.311Z,102230
2023-03-05T00:40:00.467Z,102230
2023-03-05T00:45:00.338Z,102230
2023-03-05T00:50:00.559Z,102230
2023-03-05T00:55:00.361Z,102220
2023-03-05T01:00:00.553Z,102220
2023-03-05T01:05:00.431Z,102220
2023-03-05T01:10:00.326Z,102220
2023-03-05T01:15:00.350Z,102210
2023-03-05T01:20:00.344Z,102200
2023-03-05T01:25:00.302Z,102200
2023-03-05T01:30:00.342Z,102180
2023-03-05T01:35:01.083Z,102170
2023-03-05T01:40:00.316Z,102170
2023-03-05T01:45:11.798Z,102160
2023-03-05T01:50:00.575Z,102160
2023-03-05T01:55:03.116Z,102150
2023-03-05T02:00:08.872Z,102140
2023-03-05T02:05:04.083Z,102130
2023-03-05T02:10:00.311Z,102120
2023-03-05T02:15:00.329Z,102110
2023-03-05T02:20:09.183Z,102100
2023-03-05T02:25:00.338Z,102100
2023-03-05T02:30:01.629Z,102090
2023-03-05T02:35:00.320Z,102090
2023-03-05T02:40:00.382Z,102090
2023-03-05T02:45:01.385Z,102080
2023-03-05T02:50:00.340Z,102070
2023-03-05T02:55:00.457Z,102070
2023-03-05T03:00:00.686Z,102060
2023-03-05T03:05:00.354Z,102060
2023-03-05T03:10:00.301Z,102050
2023-03-05T03:15:00.317Z,102050
2023-03-05T03:20:00.523Z,102050
2023-03-05T03:25:00.382Z,102040
2023-03-05T03:30:00.316Z,102040
2023-03-05T03:35:00.529Z,102030
2023-03-05T03:40:00.442Z,102030
2023-03-05T03:45:00.524Z,102020
2023-03-05T03:50:00.389Z,102020
2023-03-05T03:55:00.311Z,102000
2023-03-05T04:00:00.923Z,102000
2023-03-05T04:05:00.389Z,101990
2023-03-05T04:10:00.301Z,101990
2023-03-05T04:15:00.328Z,101980
2023-03-05T04:20:00.527Z,101970
2023-03-05T04:25:00.316Z,101970
2023-03-05T04:30:00.490Z,101970
2023-03-05T04:35:00.307Z,101970
2023-03-05T04:40:00.325Z,101960
2023-03-05T04:45:00.382Z,101960
2023-03-05T04:50:00.296Z,101950
2023-03-05T04:55:00.358Z,101940
2023-03-05T05:00:00.960Z,101940
2023-03-05T05:05:00.281Z,101940
2023-03-05T05:10:00.322Z,101930
2023-03-05T05:15:00.759Z,101930
2023-03-05T05:20:01.549Z,101930
2023-03-05T05:25:00.885Z,101930
2023-03-05T05:30:00.416Z,101920
2023-03-05T05:35:00.368Z,101920
2023-03-05T05:40:00.307Z,101910
2023-03-05T05:45:00.551Z,101910
2023-03-05T05:50:00.369Z,101910
2023-03-05T05:55:00.439Z,101900
2023-03-05T06:00:01.320Z,101890
2023-03-05T06:05:00.284Z,101900
2023-03-05T06:10:00.830Z,101890
2023-03-05T06:15:00.307Z,101890
2023-03-05T06:20:00.319Z,101890
2023-03-05T06:25:00.351Z,101880
2023-03-05T06:30:00.679Z,101880
2023-03-05T06:35:00.312Z,101890
2023-03-05T06:40:00.317Z,101890
2023-03-05T06:45:00.317Z,101880
2023-03-05T06:50:00.386Z,101890
2023-03-05T06:55:00.315Z,101890
2023-03-05T07:00:00.527Z,101880
2023-03-05T07:05:00.308Z,101890
2023-03-05T07:10:00.464Z,101880
2023-03-05T07:15:00.693Z,101880
2023-03-05T07:20:00.425Z,101880
2023-03-05T07:25:00.306Z,101890
2023-03-05T07:30:00.474Z,101880
2023-03-05T07:35:00.399Z,101880
2023-03-05T07:40:00.428Z,101880
2023-03-05T07:45:00.317Z,101880
2023-03-05T07:50:00.547Z,101870
2023-03-05T07:55:00.310Z,101860
2023-03-05T08:00:01.720Z,101860
2023-03-05T08:05:00.332Z,101860
2023-03-05T08:10:00.317Z,101860
2023-03-05T08:15:00.303Z,101850
2023-03-05T08:20:00.329Z,101860
2023-03-05T08:25:00.597Z,101850
2023-03-05T08:30:00.746Z,101850
2023-03-05T08:35:00.338Z,101840
2023-03-05T08:40:00.454Z,101840
2023-03-05T08:45:00.332Z,101830
2023-03-05T08:50:00.315Z,101830
2023-03-05T08:55:00.441Z,101830
2023-03-05T09:00:00.528Z,101830
2023-03-05T09:05:00.348Z,101830
2023-03-05T09:10:00.387Z,101820
2023-03-05T09:15:00.356Z,101820
2023-03-05T09:20:00.962Z,101810
2023-03-05T09:25:00.313Z,101810
2023-03-05T09:30:00.344Z,101810
2023-03-05T09:35:00.364Z,101800
2023-03-05T09:40:00.332Z,101800
2023-03-05T09:45:20.197Z,101790
2023-03-05T09:50:12.247Z,101790
2023-03-05T09:55:01.430Z,101790
2023-03-05T10:00:04.532Z,101790
2023-03-05T10:05:11.280Z,101780
2023-03-05T10:10:02.454Z,101780
2023-03-05T10:15:00.333Z,101770
2023-03-05T10:20:14.190Z,101770
2023-03-05T10:25:13.536Z,101760
2023-03-05T10:30:11.308Z,101760
2023-03-05T10:35:10.225Z,101760
2023-03-05T10:40:20.206Z,101760
2023-03-05T10:45:14.238Z,101750
2023-03-05T10:50:00.394Z,101750
2023-03-05T10:55:00.428Z,101740
2023-03-05T11:00:20.229Z,101730
2023-03-05T11:05:00.292Z,101730
2023-03-05T11:10:00.315Z,101720
2023-03-05T11:15:11.256Z,101710
2023-03-05T11:20:20.195Z,101710
2023-03-05T11:25:12.435Z,101700
2023-03-05T11:30:00.693Z,101690
2023-03-05T11:35:00.325Z,101690
2023-03-05T11:40:15.107Z,101690
2023-03-05T11:45:00.330Z,101680
2023-03-05T11:50:04.552Z,101670
2023-03-05T11:55:15.214Z,101660
2023-03-05T12:00:04.558Z,101650
2023-03-05T12:05:00.302Z,101640
2023-03-05T12:10:01.126Z,101630
2023-03-05T12:15:11.347Z,101620
2023-03-05T12:20:05.978Z,101620
2023-03-05T12:25:15.980Z,101600
2023-03-05T12:30:00.926Z,101600
2023-03-05T12:35:02.571Z,101590
2023-03-05T12:40:20.199Z,101580
2023-03-05T12:45:10.239Z,101570
2023-03-05T12:50:00.514Z,101560
2023-03-05T12:55:14.096Z,101550
2023-03-05T13:00:02.506Z,101540
2023-03-05T13:05:06.552Z,101540
2023-03-05T13:10:00.403Z,101530
2023-03-05T13:15:03.864Z,101520
2023-03-05T13:20:20.197Z,101510
2023-03-05T13:25:09.614Z,101510
2023-03-05T13:30:00.319Z,101500
2023-03-05T13:35:00.506Z,101490
2023-03-05T13:40:04.456Z,101490
2023-03-05T13:45:06.294Z,101490
2023-03-05T13:50:03.917Z,101480
2023-03-05T13:55:03.365Z,101470
2023-03-05T14:00:00.645Z,101460
2023-03-05T14:05:00.419Z,101460
2023-03-05T14:10:00.824Z,101450
2023-03-05T14:15:01.817Z,101450
2023-03-05T14:20:10.228Z,101440
2023-03-05T14:25:00.801Z,101440
2023-03-05T14:30:01.185Z,101430
2023-03-05T14:35:03.993Z,101420
2023-03-05T14:40:04.740Z,101410
2023-03-05T14:45:09.541Z,101400
2023-03-05T14:50:00.336Z,101390
2023-03-05T14:55:00.724Z,101390
2023-03-05T15:00:01.469Z,101370
2023-03-05T15:05:00.325Z,101370
2023-03-05T15:10:00.351Z,101360
2023-03-05T15:15:00.359Z,101360
2023-03-05T15:20:00.616Z,101350
2023-03-05T15:25:00.377Z,101350
2023-03-05T15:30:00.350Z,101340
2023-03-05T15:35:00.318Z,101340
2023-03-05T15:40:00.334Z,101330
2023-03-05T15:45:00.287Z,101330
2023-03-05T15:50:00.644Z,101320
2023-03-05T15:55:00.804Z,101310
2023-03-05T16:00:00.853Z,101310
2023-03-05T16:05:00.333Z,101300
2023-03-05T16:10:00.407Z,101300
2023-03-05T16:15:00.686Z,101290
2023-03-05T16:20:00.347Z,101280
2023-03-05T16:25:00.316Z,101270
2023-03-05T16:30:00.652Z,101270
2023-03-05T16:35:00.293Z,101260
2023-03-05T16:40:00.347Z,101260
2023-03-05T16:45:00.628Z,101260
2023-03-05T16:50:00.333Z,101250
2023-03-05T16:55:00.464Z,101250
2023-03-05T17:00:00.857Z,101250
2023-03-05T17:05:00.337Z,101250
2023-03-05T17:10:00.319Z,101240
2023-03-05T17:15:00.319Z,101230
2023-03-05T17:20:00.352Z,101240
2023-03-05T17:25:00.347Z,101230
2023-03-05T17:30:00.413Z,101230
2023-03-05T17:35:00.360Z,101230
2023-03-05T17:40:00.341Z,101230
2023-03-05T17:45:00.329Z,101230
2023-03-05T17:50:00.673Z,101230
2023-03-05T17:55:00.356Z,101230
2023-03-05T18:00:00.661Z,101230
2023-03-05T18:05:01.028Z,101220
2023-03-05T18:10:00.379Z,101220
2023-03-05T18:15:00.493Z,101220
2023-03-05T18:20:03.567Z,101220
2023-03-05T18:25:00.582Z,101210
2023-03-05T18:30:00.301Z,101210
2023-03-05T18:35:00.298Z,101210
2023-03-05T18:40:00.324Z,101210
2023-03-05T18:45:00.280Z,101210
2023-03-05T18:50:00.341Z,101200
2023-03-05T18:55:00.293Z,101200
2023-03-05T19:00:00.557Z,101190
2023-03-05T19:05:00.324Z,101180
2023-03-05T19:10:00.700Z,101170
2023-03-05T19:15:01.510Z,101170
2023-03-05T19:20:00.331Z,101170
2023-03-05T19:25:00.620Z,101170
2023-03-05T19:30:00.554Z,101170
2023-03-05T19:35:00.834Z,101160
2023-03-05T19:40:00.301Z,101150
2023-03-05T19:45:00.370Z,101150
2023-03-05T19:50:00.423Z,101140
2023-03-05T19:55:00.273Z,101140
2023-03-05T20:00:00.483Z,101130
2023-03-05T20:05:00.361Z,101120
2023-03-05T20:10:00.313Z,101120
2023-03-05T20:15:00.293Z,101130
2023-03-05T20:20:00.344Z,101120
2023-03-05T20:25:00.295Z,101120
2023-03-05T20:30:00.292Z,101120
2023-03-05T20:35:00.465Z,101110
2023-03-05T20:40:00.299Z,101110
2023-03-05T20:45:00.332Z,101100
2023-03-05T20:50:00.364Z,101100
2023-03-05T20:55:00.350Z,101090
2023-03-05T21:00:00.924Z,101090
2023-03-05T21:05:00.434Z,101090
2023-03-05T21:10:00.538Z,101080
2023-03-05T21:15:00.324Z,101080
2023-03-05T21:20:00.763Z,101080
2023-03-05T21:25:02.957Z,101070
2023-03-05T21:30:00.328Z,101070
2023-03-05T21:35:00.517Z,101050
2023-03-05T21:40:00.320Z,101040
2023-03-05T21:45:00.304Z,101040
2023-03-05T21:50:00.352Z,101030
2023-03-05T21:55:00.317Z,101030
2023-03-05T22:00:00.624Z,101030
2023-03-05T22:05:00.276Z,101030
2023-03-05T22:10:00.316Z,101020
2023-03-05T22:15:00.356Z,101010
2023-03-05T22:20:00.343Z,101010
2023-03-05T22:25:00.310Z,101000
2023-03-05T22:30:00.277Z,101000
2023-03-05T22:35:00.464Z,100990
2023-03-05T22:40:00.324Z,100980
2023-03-05T22:45:00.345Z,100970
2023-03-05T22:50:00.548Z,100970
2023-03-05T22:55:01.142Z,100960
2023-03-05T23:00:00.583Z,100960
2023-03-05T23:05:00.282Z,100940
2023-03-05T23:10:04.049Z,100930
2023-03-05T23:15:02.781Z,100920
2023-03-05T23:20:00.661Z,100920
2023-03-05T23:25:00.321Z,100920
2023-03-05T23:30:02.930Z,100920
2023-03-05T23:35:00.427Z,100920
2023-03-05T23:40:01.912Z,100920
2023-03-05T23:45:00.298Z,100910
2023-03-05T23:50:02.737Z,100910
2023-03-05T23:55:00.394Z,100900
